X  Stänga Metar väderdata för luftfart     LGRX Patras Araxos Agamemnon Airport
Temperatur
26°C Temperatur
19°C Daggpunkt
65% Fuktighet



Vind
0 KM/T
0 MPH
0 M/S
0 KTS



Lugn
N
Nuvarande omständigheter

Klar Klar
Tryck 1013.92 (hPa) - 29.94 (inHg)
Synlighet 6.2 (mil) - 10 (km)
Flygplats
Flygplatskod LGRX

Plats: Patras Araxos Agamemnon Airport
Distans: 16 (km)

Metar:
LGRX 020450Z 00000KT CAVOK 26/19 Q1014

Tid: 02-07-2022 07:50 EEST